createdAt,value
2023-03-10T00:02:23.059Z,3.90
2023-03-10T00:07:24.663Z,3.60
2023-03-10T00:12:27.834Z,3.33
2023-03-10T00:17:29.528Z,2.67
2023-03-10T00:22:31.087Z,2.70
2023-03-10T00:27:33.257Z,2.60
2023-03-10T00:32:35.908Z,2.67
2023-03-10T00:37:39.141Z,2.53
2023-03-10T00:42:41.497Z,2.50
2023-03-10T00:47:43.070Z,2.72
2023-03-10T00:52:45.644Z,2.10
2023-03-10T00:57:47.459Z,2.15
2023-03-10T01:02:51.497Z,2.90
2023-03-10T01:07:53.483Z,2.60
2023-03-10T01:12:55.138Z,2.20
2023-03-10T01:17:56.733Z,2.17
2023-03-10T01:22:58.646Z,1.95
2023-03-10T01:28:00.223Z,2.20
2023-03-10T01:33:01.913Z,2.35
2023-03-10T01:38:04.302Z,2.20
2023-03-10T01:43:33.298Z,2.67
2023-03-10T01:48:36.249Z,2.05
2023-03-10T01:53:38.709Z,2.15
2023-03-10T01:58:42.993Z,1.75
2023-03-10T02:03:49.645Z,1.98
2023-03-10T02:08:56.762Z,2.10
2023-03-10T02:14:01.640Z,2.00
2023-03-10T02:19:06.516Z,2.20
2023-03-10T02:24:39.838Z,2.47
2023-03-10T02:29:58.898Z,2.53
2023-03-10T02:35:01.635Z,2.17
2023-03-10T02:40:29.684Z,2.15
2023-03-10T02:45:33.354Z,2.08
2023-03-10T02:50:38.186Z,2.00
2023-03-10T02:55:40.417Z,1.92
2023-03-10T03:00:44.687Z,1.80
2023-03-10T03:05:49.534Z,1.40
2023-03-10T03:10:51.701Z,1.50
2023-03-10T03:15:54.186Z,1.40
2023-03-10T03:20:56.439Z,1.60
2023-03-10T03:25:58.120Z,1.50
2023-03-10T03:31:01.946Z,1.67
2023-03-10T03:36:05.868Z,1.35
2023-03-10T03:41:08.457Z,1.30
2023-03-10T03:46:12.452Z,1.38
2023-03-10T03:51:14.906Z,1.95
2023-03-10T03:56:18.154Z,1.70
2023-03-10T04:01:20.668Z,1.83
2023-03-10T04:06:27.518Z,1.48
2023-03-10T04:11:30.596Z,1.65
2023-03-10T04:16:32.393Z,1.90
2023-03-10T04:21:38.088Z,2.60
2023-03-10T04:26:40.491Z,2.72
2023-03-10T04:31:43.747Z,3.05
2023-03-10T04:36:48.314Z,3.00
2023-03-10T04:41:50.767Z,3.38
2023-03-10T04:46:52.626Z,2.75
2023-03-10T04:51:55.389Z,2.00
2023-03-10T04:56:57.345Z,2.35
2023-03-10T05:01:59.288Z,2.25
2023-03-10T05:07:01.257Z,1.70
2023-03-10T05:12:12.613Z,1.45
2023-03-10T05:17:15.631Z,1.52
2023-03-10T05:22:18.673Z,1.42
2023-03-10T05:27:21.943Z,0.82
2023-03-10T05:32:24.412Z,1.27
2023-03-10T05:37:27.201Z,1.17
2023-03-10T05:42:29.919Z,1.38
2023-03-10T05:47:33.797Z,1.60
2023-03-10T05:52:42.153Z,1.60
2023-03-10T05:57:45.118Z,1.33
2023-03-10T06:02:47.156Z,1.20
2023-03-10T06:07:48.751Z,1.33
2023-03-10T06:12:50.349Z,1.20
2023-03-10T06:17:52.030Z,1.83
2023-03-10T06:22:53.625Z,1.10
2023-03-10T06:27:55.203Z,1.27
2023-03-10T06:32:57.001Z,1.30
2023-03-10T06:37:58.732Z,1.20
2023-03-10T06:43:00.326Z,1.20
2023-03-10T06:48:02.257Z,1.23
2023-03-10T06:53:11.760Z,1.10
2023-03-10T06:58:13.376Z,0.98
2023-03-10T07:03:15.009Z,1.60
2023-03-10T07:08:16.616Z,1.17
2023-03-10T07:13:18.178Z,0.95
2023-03-10T07:18:19.842Z,1.10
2023-03-10T07:23:21.660Z,1.00
2023-03-10T07:28:24.156Z,1.20
2023-03-10T07:33:25.917Z,1.00
2023-03-10T07:38:27.512Z,1.00
2023-03-10T07:43:29.210Z,0.75
2023-03-10T07:48:30.902Z,0.90
2023-03-10T07:53:33.177Z,0.88
2023-03-10T07:58:35.614Z,0.90
2023-03-10T08:03:37.310Z,0.77
2023-03-10T08:08:39.365Z,0.80
2023-03-10T08:13:41.778Z,1.00
2023-03-10T08:18:43.881Z,1.10
2023-03-10T08:23:45.549Z,1.05
2023-03-10T08:28:47.523Z,0.80
2023-03-10T08:33:49.292Z,0.85
2023-03-10T08:38:52.678Z,1.00
2023-03-10T08:43:55.865Z,0.85
2023-03-10T08:48:57.863Z,0.90
2023-03-10T08:53:59.993Z,1.20
2023-03-10T08:59:01.700Z,1.10
2023-03-10T09:04:04.994Z,0.80
2023-03-10T09:09:08.469Z,0.80
2023-03-10T09:14:11.509Z,0.80
2023-03-10T09:19:13.104Z,1.02
2023-03-10T09:24:14.635Z,1.08
2023-03-10T09:29:16.355Z,0.98
2023-03-10T09:34:17.975Z,1.13
2023-03-10T09:39:19.622Z,1.00
2023-03-10T09:44:45.673Z,1.20
2023-03-10T09:49:54.555Z,0.93
2023-03-10T09:55:03.636Z,0.90
2023-03-10T10:00:09.077Z,1.00
2023-03-10T10:05:20.075Z,1.10
2023-03-10T10:10:27.370Z,1.15
2023-03-10T10:15:34.942Z,1.30
2023-03-10T10:20:43.953Z,1.00
2023-03-10T10:25:45.834Z,0.88
2023-03-10T10:30:47.617Z,1.00
2023-03-10T10:36:02.963Z,0.88
2023-03-10T10:41:07.846Z,0.82
2023-03-10T10:46:11.190Z,0.90
2023-03-10T10:51:29.177Z,0.90
2023-03-10T10:56:31.092Z,1.00
2023-03-10T11:01:57.385Z,1.00
2023-03-10T11:07:11.459Z,1.17
2023-03-10T11:12:26.731Z,1.30
2023-03-10T11:17:30.358Z,1.00
2023-03-10T11:22:48.720Z,1.30
2023-03-10T11:28:20.923Z,1.05
2023-03-10T11:33:28.386Z,1.05
2023-03-10T11:38:43.286Z,1.20
2023-03-10T11:43:55.730Z,1.00
2023-03-10T11:49:17.327Z,1.40
2023-03-10T11:54:25.107Z,0.98
2023-03-10T11:59:31.000Z,1.20
2023-03-10T12:04:44.593Z,1.10
2023-03-10T12:09:57.565Z,1.35
2023-03-10T12:15:00.889Z,1.02
2023-03-10T12:20:16.036Z,1.00
2023-03-10T12:25:30.001Z,1.20
2023-03-10T12:30:52.024Z,1.20
2023-03-10T12:35:55.798Z,1.25
2023-03-10T12:40:58.744Z,1.25
2023-03-10T12:46:02.073Z,1.30
2023-03-10T12:51:13.434Z,1.30
2023-03-10T12:56:14.926Z,1.35
2023-03-10T13:01:20.461Z,1.42
2023-03-10T13:06:33.751Z,1.45
2023-03-10T13:11:41.605Z,1.40
2023-03-10T13:16:56.570Z,1.20
2023-03-10T13:21:58.538Z,1.05
2023-03-10T13:27:07.598Z,1.17
2023-03-10T13:32:18.444Z,1.33
2023-03-10T13:37:20.098Z,1.10
2023-03-10T13:42:40.932Z,1.30
2023-03-10T13:47:44.821Z,1.35
2023-03-10T13:52:59.508Z,1.30
2023-03-10T13:58:02.068Z,1.55
2023-03-10T14:03:04.636Z,1.13
2023-03-10T14:08:06.909Z,0.93
2023-03-10T14:13:40.241Z,1.40
2023-03-10T14:18:42.965Z,1.40
2023-03-10T14:23:44.559Z,1.70
2023-03-10T14:28:46.260Z,1.02
2023-03-10T14:33:48.284Z,0.60
2023-03-10T14:38:49.923Z,0.70
2023-03-10T14:43:51.733Z,0.60
2023-03-10T14:48:53.549Z,0.70
2023-03-10T14:53:55.160Z,0.80
2023-03-10T14:58:58.324Z,0.80
2023-03-10T15:03:59.928Z,0.60
2023-03-10T15:09:01.569Z,0.90
2023-03-10T15:14:21.461Z,1.20
2023-03-10T15:19:24.970Z,0.80
2023-03-10T15:24:26.613Z,1.05
2023-03-10T15:29:28.225Z,1.20
2023-03-10T15:34:29.942Z,1.13
2023-03-10T15:39:33.796Z,1.10
2023-03-10T15:44:36.275Z,0.80
2023-03-10T15:49:38.729Z,1.05
2023-03-10T15:54:40.829Z,1.10
2023-03-10T15:59:42.443Z,0.80
2023-03-10T16:04:44.392Z,1.00
2023-03-10T16:09:47.366Z,1.13
2023-03-10T16:14:49.237Z,0.95
2023-03-10T16:19:51.158Z,1.02
2023-03-10T16:24:52.781Z,0.90
2023-03-10T16:29:54.416Z,1.10
2023-03-10T16:34:56.045Z,1.05
2023-03-10T16:39:57.953Z,0.90
2023-03-10T16:44:59.510Z,1.40
2023-03-10T16:50:01.133Z,1.30
2023-03-10T16:55:05.092Z,1.23
2023-03-10T17:00:09.245Z,1.70
2023-03-10T17:05:10.887Z,1.30
2023-03-10T17:10:12.527Z,1.10
2023-03-10T17:15:14.105Z,1.10
2023-03-10T17:20:17.182Z,1.05
2023-03-10T17:25:18.787Z,0.90
2023-03-10T17:30:20.624Z,1.10
2023-03-10T17:35:22.216Z,4.75
2023-03-10T17:40:24.020Z,0.90
2023-03-10T17:45:25.613Z,1.00
2023-03-10T17:50:27.254Z,1.05
2023-03-10T17:55:28.816Z,1.05
2023-03-10T18:00:30.470Z,1.10
2023-03-10T18:05:32.204Z,1.20
2023-03-10T18:10:35.391Z,1.08
2023-03-10T18:15:37.575Z,1.10
2023-03-10T18:20:40.457Z,0.90
2023-03-10T18:25:46.009Z,1.30
2023-03-10T18:30:49.214Z,1.20
2023-03-10T18:35:50.913Z,1.30
2023-03-10T18:41:03.535Z,1.55
2023-03-10T18:46:06.729Z,1.20
2023-03-10T18:51:08.534Z,1.23
2023-03-10T18:56:10.393Z,1.13
2023-03-10T19:01:13.770Z,0.90
2023-03-10T19:06:15.372Z,1.25
2023-03-10T19:11:17.160Z,0.90
2023-03-10T19:16:18.922Z,1.10
2023-03-10T19:21:22.868Z,0.98
2023-03-10T19:26:25.078Z,0.95
2023-03-10T19:31:26.797Z,1.10
2023-03-10T19:36:29.520Z,1.00
2023-03-10T19:41:31.240Z,1.00
2023-03-10T19:46:32.922Z,1.15
2023-03-10T19:51:34.614Z,0.90
2023-03-10T19:56:36.260Z,0.90
2023-03-10T20:01:40.157Z,0.70
2023-03-10T20:06:41.981Z,0.85
2023-03-10T20:11:44.019Z,1.13
2023-03-10T20:16:45.827Z,0.77
2023-03-10T20:21:47.621Z,0.60
2023-03-10T20:26:49.339Z,0.80
2023-03-10T20:31:51.050Z,1.02
2023-03-10T20:36:52.632Z,1.05
2023-03-10T20:41:54.384Z,0.98
2023-03-10T20:46:55.958Z,0.80
2023-03-10T20:51:57.610Z,0.82
2023-03-10T20:56:59.173Z,0.50
2023-03-10T21:02:00.755Z,0.80
2023-03-10T21:07:02.385Z,0.50
2023-03-10T21:12:04.311Z,0.60
2023-03-10T21:17:06.875Z,0.68
2023-03-10T21:22:08.830Z,0.60
2023-03-10T21:27:10.483Z,0.73
2023-03-10T21:32:12.299Z,0.88
2023-03-10T21:37:14.163Z,0.90
2023-03-10T21:42:16.073Z,0.80
2023-03-10T21:47:17.677Z,0.85
2023-03-10T21:52:19.244Z,0.70
2023-03-10T21:57:20.846Z,0.70
2023-03-10T22:02:30.317Z,0.90
2023-03-10T22:07:32.579Z,0.80
2023-03-10T22:12:34.409Z,0.70
2023-03-10T22:17:35.946Z,0.82
2023-03-10T22:22:37.523Z,0.90
2023-03-10T22:27:39.218Z,0.70
2023-03-10T22:32:41.544Z,0.73
2023-03-10T22:37:43.581Z,0.70
2023-03-10T22:42:45.748Z,0.88
2023-03-10T22:47:48.142Z,0.82
2023-03-10T22:52:49.870Z,0.77
2023-03-10T22:57:52.580Z,0.80
2023-03-10T23:02:54.184Z,0.70
2023-03-10T23:07:56.223Z,0.70
2023-03-10T23:13:06.440Z,0.80
2023-03-10T23:18:08.703Z,0.90
2023-03-10T23:23:14.614Z,0.80
2023-03-10T23:28:17.574Z,0.68
2023-03-10T23:33:22.063Z,0.80
2023-03-10T23:38:25.230Z,0.68
2023-03-10T23:43:27.284Z,0.70
2023-03-10T23:48:29.086Z,0.85
2023-03-10T23:53:30.853Z,0.90
2023-03-10T23:58:32.620Z,0.95
